createdAt,value
2022-10-02T00:01:23.758Z,12.15
2022-10-02T00:03:51.367Z,16.83
2022-10-02T00:06:41.266Z,8.32
2022-10-02T00:09:14.752Z,20.50
2022-10-02T00:11:48.967Z,20.38
2022-10-02T00:14:20.126Z,17.88
2022-10-02T00:16:51.234Z,7.18
2022-10-02T00:19:20.139Z,18.98
2022-10-02T00:22:13.686Z,17.90
2022-10-02T00:24:51.909Z,18.77
2022-10-02T00:27:33.660Z,16.52
2022-10-02T00:30:04.055Z,23.10
2022-10-02T00:32:52.394Z,23.02
2022-10-02T00:35:25.292Z,16.33
2022-10-02T00:38:23.883Z,16.05
2022-10-02T00:41:20.310Z,11.93
2022-10-02T00:44:29.779Z,11.43
2022-10-02T00:47:23.131Z,20.23
2022-10-02T00:50:15.807Z,14.52
2022-10-02T00:53:11.003Z,11.00
2022-10-02T00:55:59.674Z,22.58
2022-10-02T00:58:45.603Z,20.75
2022-10-02T01:01:18.345Z,13.90
2022-10-02T01:03:56.361Z,20.70
2022-10-02T01:06:28.468Z,26.10
2022-10-02T01:08:56.340Z,22.30
2022-10-02T01:11:25.940Z,21.75
2022-10-02T01:13:53.770Z,13.25
2022-10-02T01:16:20.928Z,20.58
2022-10-02T01:18:50.625Z,14.77
2022-10-02T01:21:45.723Z,31.67
2022-10-02T01:24:30.781Z,15.07
2022-10-02T01:26:58.465Z,22.05
2022-10-02T01:34:21.008Z,17.75
2022-10-02T01:39:18.584Z,18.95
2022-10-02T01:44:15.910Z,24.58
2022-10-02T01:46:52.071Z,19.25
2022-10-02T01:49:39.827Z,26.92
2022-10-02T01:52:37.655Z,27.08
2022-10-02T01:55:31.205Z,21.77
2022-10-02T01:58:08.000Z,20.45
2022-10-02T02:01:06.639Z,22.73
2022-10-02T02:03:54.979Z,16.20
2022-10-02T02:06:58.602Z,26.73
2022-10-02T02:09:38.708Z,13.55
2022-10-02T02:14:47.540Z,18.67
2022-10-02T02:17:33.715Z,17.48
2022-10-02T02:20:06.231Z,21.52
2022-10-02T02:22:43.663Z,31.02
2022-10-02T02:25:16.985Z,18.88
2022-10-02T02:27:55.007Z,31.77
2022-10-02T02:30:23.508Z,16.73
2022-10-02T02:32:57.091Z,20.88
2022-10-02T02:35:53.420Z,14.82
2022-10-02T02:38:32.460Z,25.33
2022-10-02T02:41:24.390Z,22.08
2022-10-02T02:44:15.208Z,21.98
2022-10-02T02:47:06.846Z,22.58
2022-10-02T02:49:56.873Z,14.77
2022-10-02T02:52:33.732Z,34.03
2022-10-02T02:55:09.998Z,20.77
2022-10-02T02:57:56.399Z,25.15
2022-10-02T03:00:25.162Z,26.67
2022-10-02T03:02:58.687Z,17.90
2022-10-02T03:05:26.482Z,29.33
2022-10-02T03:08:04.557Z,29.63
2022-10-02T03:10:55.050Z,33.60
2022-10-02T03:13:25.350Z,35.25
2022-10-02T03:16:01.744Z,28.08
2022-10-02T03:18:48.205Z,29.77
2022-10-02T03:21:26.043Z,18.35
2022-10-02T03:24:15.084Z,26.52
2022-10-02T03:26:53.555Z,25.05
2022-10-02T03:29:44.058Z,12.02
2022-10-02T03:32:13.934Z,34.63
2022-10-02T03:34:43.273Z,24.17
2022-10-02T03:37:10.550Z,12.18
2022-10-02T03:39:43.410Z,17.10
2022-10-02T03:42:15.061Z,40.80
2022-10-02T03:44:43.533Z,36.53
2022-10-02T03:47:13.391Z,35.17
2022-10-02T03:49:40.919Z,43.33
2022-10-02T03:57:07.806Z,34.78
2022-10-02T03:59:39.839Z,19.70
2022-10-02T04:02:19.099Z,29.90
2022-10-02T04:04:54.671Z,50.22
2022-10-02T04:07:31.052Z,26.13
2022-10-02T04:10:28.146Z,30.70
2022-10-02T04:13:10.475Z,25.05
2022-10-02T04:16:04.468Z,39.65
2022-10-02T04:19:04.393Z,30.02
2022-10-02T04:21:51.324Z,28.38
2022-10-02T04:24:27.037Z,52.10
2022-10-02T04:27:12.138Z,43.80
2022-10-02T04:29:47.758Z,38.13
2022-10-02T04:32:17.349Z,27.83
2022-10-02T04:34:44.755Z,35.58
2022-10-02T04:40:50.645Z,39.65
2022-10-02T04:43:45.960Z,35.90
2022-10-02T04:46:43.775Z,38.15
2022-10-02T04:49:37.065Z,30.88
2022-10-02T04:52:28.699Z,43.63
2022-10-02T04:55:11.065Z,27.23
2022-10-02T04:57:47.642Z,30.35
2022-10-02T05:00:21.142Z,22.58
2022-10-02T05:03:09.637Z,34.13
2022-10-02T05:06:05.988Z,32.25
2022-10-02T05:08:52.273Z,44.77
2022-10-02T05:11:52.204Z,39.35
2022-10-02T05:14:56.967Z,41.95
2022-10-02T05:17:53.648Z,30.60
2022-10-02T05:20:57.702Z,27.95
2022-10-02T05:23:31.134Z,30.38
2022-10-02T05:26:29.152Z,37.22
2022-10-02T05:29:33.726Z,40.40
2022-10-02T05:32:17.303Z,30.17
2022-10-02T05:34:53.642Z,43.22
2022-10-02T05:37:53.438Z,23.67
2022-10-02T05:40:42.693Z,39.50
2022-10-02T05:43:26.501Z,49.45
2022-10-02T05:45:58.567Z,53.33
2022-10-02T05:48:46.536Z,38.75
2022-10-02T05:51:30.198Z,38.20
2022-10-02T05:54:07.078Z,45.95
2022-10-02T05:56:44.762Z,35.13
2022-10-02T05:59:41.852Z,28.52
2022-10-02T06:02:24.148Z,44.40
2022-10-02T06:05:03.447Z,28.38
2022-10-02T06:07:32.945Z,41.83
2022-10-02T06:10:11.087Z,36.50
2022-10-02T06:13:02.371Z,38.03
2022-10-02T06:15:52.129Z,22.92
2022-10-02T06:18:24.106Z,13.43
2022-10-02T06:21:13.035Z,28.95
2022-10-02T06:23:44.901Z,30.80
2022-10-02T06:26:22.450Z,38.60
2022-10-02T06:28:56.247Z,15.55
2022-10-02T06:31:42.966Z,20.85
2022-10-02T06:34:13.213Z,30.83
2022-10-02T06:36:55.287Z,18.00
2022-10-02T06:39:41.754Z,30.63
2022-10-02T06:42:22.801Z,22.63
2022-10-02T06:45:14.465Z,14.65
2022-10-02T06:47:59.663Z,20.83
2022-10-02T06:50:51.734Z,32.88
2022-10-02T06:53:45.915Z,32.15
2022-10-02T06:56:37.377Z,12.75
2022-10-02T06:59:12.881Z,15.18
2022-10-02T07:02:18.500Z,17.75
2022-10-02T07:05:22.120Z,24.52
2022-10-02T07:08:00.369Z,14.32
2022-10-02T07:10:57.039Z,15.05
2022-10-02T07:13:49.108Z,16.65
2022-10-02T07:16:25.815Z,19.98
2022-10-02T07:19:05.985Z,18.33
2022-10-02T07:21:49.035Z,14.27
2022-10-02T07:24:44.040Z,13.52
2022-10-02T07:27:23.556Z,14.82
2022-10-02T07:30:10.201Z,13.05
2022-10-02T07:32:52.541Z,15.20
2022-10-02T07:35:28.428Z,9.93
2022-10-02T07:38:43.573Z,18.83
2022-10-02T07:41:44.602Z,21.67
2022-10-02T07:44:40.721Z,14.60
2022-10-02T07:47:48.619Z,12.65
2022-10-02T07:50:33.953Z,23.25
2022-10-02T07:53:15.959Z,26.80
2022-10-02T07:55:53.452Z,27.15
2022-10-02T08:01:06.177Z,14.98
2022-10-02T08:03:44.220Z,16.25
2022-10-02T08:06:12.229Z,22.98
2022-10-02T08:08:44.494Z,19.13
2022-10-02T08:11:30.403Z,26.20
2022-10-02T08:14:03.507Z,24.33
2022-10-02T08:16:36.760Z,15.90
2022-10-02T08:19:17.450Z,21.63
2022-10-02T08:21:50.489Z,25.77
2022-10-02T08:24:24.601Z,24.15
2022-10-02T08:27:04.778Z,23.80
2022-10-02T08:29:40.573Z,27.88
2022-10-02T08:32:12.698Z,20.85
2022-10-02T08:34:41.861Z,21.92
2022-10-02T08:37:24.666Z,17.90
2022-10-02T08:40:19.872Z,25.20
2022-10-02T08:43:11.351Z,23.02
2022-10-02T08:46:06.925Z,21.45
2022-10-02T08:48:54.909Z,19.92
2022-10-02T08:52:05.951Z,20.73
2022-10-02T08:54:50.893Z,11.02
2022-10-02T08:57:36.091Z,25.58
2022-10-02T09:00:31.930Z,24.38
2022-10-02T09:03:46.000Z,24.45
2022-10-02T09:06:20.090Z,21.40
2022-10-02T09:09:36.566Z,26.58
2022-10-02T09:12:28.373Z,13.05
2022-10-02T09:15:14.301Z,30.88
2022-10-02T09:18:01.273Z,18.60
2022-10-02T09:20:37.248Z,23.73
2022-10-02T09:23:26.593Z,33.17
2022-10-02T09:26:28.617Z,22.15
2022-10-02T09:29:07.965Z,12.88
2022-10-02T09:32:09.798Z,12.82
2022-10-02T09:35:16.863Z,25.00
2022-10-02T09:38:14.557Z,21.80
2022-10-02T09:40:56.899Z,12.60
2022-10-02T09:43:30.215Z,24.30
2022-10-02T09:46:27.122Z,16.58
2022-10-02T09:49:13.862Z,20.00
2022-10-02T09:52:13.784Z,9.45
2022-10-02T09:55:08.975Z,16.05
2022-10-02T09:58:02.721Z,14.32
2022-10-02T10:00:33.127Z,17.75
2022-10-02T10:03:20.058Z,20.13
2022-10-02T10:06:21.307Z,18.88
2022-10-02T10:09:27.048Z,9.20
2022-10-02T10:12:12.233Z,22.65
2022-10-02T10:14:48.275Z,26.52
2022-10-02T10:17:22.373Z,30.17
2022-10-02T10:20:25.920Z,7.55
2022-10-02T10:23:16.639Z,23.85
2022-10-02T10:26:18.222Z,6.97
2022-10-02T10:29:11.833Z,13.77
2022-10-02T10:32:33.415Z,11.18
2022-10-02T10:35:31.637Z,7.40
2022-10-02T10:38:33.240Z,15.93
2022-10-02T10:41:19.467Z,18.85
2022-10-02T10:43:58.476Z,19.07
2022-10-02T10:46:41.602Z,20.45
2022-10-02T10:49:45.937Z,16.92
2022-10-02T10:52:34.126Z,17.13
2022-10-02T10:55:34.435Z,7.57
2022-10-02T10:58:04.687Z,18.08
2022-10-02T11:01:10.955Z,13.30
2022-10-02T11:04:07.578Z,9.10
2022-10-02T11:06:46.083Z,5.20
2022-10-02T11:09:40.873Z,6.07
2022-10-02T11:12:25.153Z,7.22
2022-10-02T11:15:19.501Z,6.82
2022-10-02T11:18:12.919Z,8.65
2022-10-02T11:20:58.939Z,16.63
2022-10-02T11:23:32.106Z,23.55
2022-10-02T11:26:07.937Z,11.43
2022-10-02T11:29:16.564Z,13.43
2022-10-02T11:31:55.766Z,9.07
2022-10-02T11:34:51.305Z,19.52
2022-10-02T11:37:39.382Z,13.35
2022-10-02T11:40:26.871Z,17.25
2022-10-02T11:43:30.541Z,20.20
2022-10-02T11:46:36.496Z,6.78
2022-10-02T11:49:12.670Z,15.95
2022-10-02T11:52:01.430Z,8.32
2022-10-02T11:55:03.070Z,16.60
2022-10-02T11:57:47.574Z,7.63
2022-10-02T12:00:39.585Z,8.75
2022-10-02T12:03:20.868Z,17.52
2022-10-02T12:06:12.196Z,10.50
2022-10-02T12:09:08.673Z,11.27
2022-10-02T12:11:54.423Z,12.73
2022-10-02T12:14:26.758Z,10.57
2022-10-02T12:17:08.718Z,13.90
2022-10-02T12:20:13.934Z,11.50
2022-10-02T12:23:23.193Z,16.98
2022-10-02T12:26:11.806Z,4.15
2022-10-02T12:28:56.204Z,5.90
2022-10-02T12:31:38.717Z,8.38
2022-10-02T12:34:33.253Z,15.10
2022-10-02T12:37:17.976Z,3.38
2022-10-02T12:39:44.974Z,8.60
2022-10-02T12:42:47.377Z,8.05
2022-10-02T12:45:47.737Z,9.80
2022-10-02T12:48:33.460Z,10.75
2022-10-02T12:51:28.500Z,12.10
2022-10-02T12:54:44.048Z,9.10
2022-10-02T12:57:56.070Z,5.18
2022-10-02T13:00:31.259Z,10.23
2022-10-02T13:03:10.564Z,12.05
2022-10-02T13:13:04.742Z,6.63
2022-10-02T13:16:13.867Z,17.95
2022-10-02T13:19:13.213Z,23.98
2022-10-02T13:22:14.253Z,11.45
2022-10-02T13:25:02.324Z,11.68
2022-10-02T13:27:40.374Z,11.13
2022-10-02T13:30:21.498Z,10.02
2022-10-02T13:33:08.531Z,15.43
2022-10-02T13:36:00.588Z,9.60
2022-10-02T13:38:46.048Z,9.27
2022-10-02T13:41:36.000Z,6.63
2022-10-02T13:44:36.169Z,11.60
2022-10-02T13:47:26.717Z,7.00
2022-10-02T13:50:23.783Z,10.68
2022-10-02T13:53:28.273Z,7.07
2022-10-02T13:56:14.698Z,8.30
2022-10-02T13:58:53.672Z,6.97
2022-10-02T14:01:59.986Z,9.65
2022-10-02T14:04:46.295Z,11.25
2022-10-02T14:07:21.543Z,7.83
2022-10-02T14:10:30.467Z,7.97
2022-10-02T14:13:49.935Z,12.57
2022-10-02T14:16:28.408Z,10.70
2022-10-02T14:19:20.138Z,17.05
2022-10-02T14:22:11.899Z,10.90
2022-10-02T14:25:05.397Z,7.38
2022-10-02T14:27:51.265Z,5.22
2022-10-02T14:30:45.229Z,13.02
2022-10-02T14:33:27.403Z,12.57
2022-10-02T14:36:01.373Z,14.32
2022-10-02T14:38:37.432Z,8.57
2022-10-02T14:41:22.021Z,8.40
2022-10-02T14:44:28.575Z,8.50
2022-10-02T14:47:15.715Z,9.20
2022-10-02T14:50:27.268Z,4.82
2022-10-02T14:53:43.425Z,10.15
2022-10-02T14:56:25.677Z,4.15
2022-10-02T14:59:10.994Z,7.22
2022-10-02T15:01:51.029Z,7.63
2022-10-02T15:04:37.247Z,12.07
2022-10-02T15:07:14.354Z,7.33
2022-10-02T15:10:02.625Z,8.02
2022-10-02T15:12:35.968Z,6.55
2022-10-02T15:15:15.988Z,13.00
2022-10-02T15:18:25.136Z,8.32
2022-10-02T15:21:00.563Z,11.63
2022-10-02T15:23:34.482Z,8.18
2022-10-02T15:26:22.555Z,13.77
2022-10-02T15:29:11.512Z,5.28
2022-10-02T15:32:21.692Z,11.75
2022-10-02T15:35:25.585Z,4.13
2022-10-02T15:38:04.423Z,11.45
2022-10-02T15:40:53.525Z,9.88
2022-10-02T15:43:54.434Z,2.72
2022-10-02T15:46:53.760Z,11.85
2022-10-02T15:49:40.429Z,7.15
2022-10-02T15:52:37.589Z,9.90
2022-10-02T15:58:09.989Z,4.18
2022-10-02T16:01:02.434Z,8.85
2022-10-02T16:03:45.251Z,8.48
2022-10-02T16:06:54.040Z,9.90
2022-10-02T16:09:39.708Z,10.80
2022-10-02T16:12:34.533Z,14.63
2022-10-02T16:15:30.482Z,13.20
2022-10-02T16:18:22.559Z,10.13
2022-10-02T16:21:12.737Z,11.15
2022-10-02T16:24:05.890Z,15.35
2022-10-02T16:26:45.858Z,12.65
2022-10-02T16:29:21.791Z,7.28
2022-10-02T16:32:25.313Z,10.38
2022-10-02T16:35:22.549Z,9.05
2022-10-02T16:38:00.035Z,4.63
2022-10-02T16:43:54.972Z,13.60
2022-10-02T16:46:34.668Z,4.30
2022-10-02T16:49:19.745Z,11.52
2022-10-02T16:52:25.046Z,9.35
2022-10-02T16:55:13.021Z,9.07
2022-10-02T16:57:43.095Z,13.18
2022-10-02T17:00:22.709Z,5.35
2022-10-02T17:02:56.348Z,6.78
2022-10-02T17:05:35.591Z,13.40
2022-10-02T17:08:34.205Z,10.10
2022-10-02T17:11:16.734Z,5.18
2022-10-02T17:14:16.709Z,11.50
2022-10-02T17:17:05.531Z,12.20
2022-10-02T17:19:47.570Z,14.38
2022-10-02T17:22:46.158Z,7.63
2022-10-02T17:25:31.694Z,10.93
2022-10-02T17:28:31.161Z,8.68
2022-10-02T17:31:00.978Z,8.25
2022-10-02T17:33:44.341Z,15.38
2022-10-02T17:36:31.670Z,21.38
2022-10-02T17:39:19.940Z,6.88
2022-10-02T17:42:16.945Z,16.15
2022-10-02T17:47:50.357Z,18.55
2022-10-02T17:50:34.337Z,9.77
2022-10-02T17:53:42.006Z,15.10
2022-10-02T17:56:30.134Z,10.45
2022-10-02T17:59:12.484Z,9.25
2022-10-02T18:02:14.916Z,12.38
2022-10-02T18:05:17.612Z,14.23
2022-10-02T18:07:54.289Z,15.77
2022-10-02T18:10:42.826Z,18.40
2022-10-02T18:13:31.230Z,10.98
2022-10-02T18:16:09.097Z,14.25
2022-10-02T18:18:59.497Z,14.52
2022-10-02T18:21:48.004Z,18.38
2022-10-02T18:24:44.549Z,11.90
2022-10-02T18:27:49.999Z,17.13
2022-10-02T18:30:22.856Z,18.70
2022-10-02T18:33:24.155Z,14.48
2022-10-02T18:36:25.148Z,27.20
2022-10-02T18:39:00.746Z,18.48
2022-10-02T18:41:52.206Z,19.65
2022-10-02T18:44:53.645Z,17.98
2022-10-02T18:47:58.210Z,9.80
2022-10-02T18:50:54.025Z,16.10
2022-10-02T18:53:49.237Z,19.23
2022-10-02T18:56:23.024Z,22.30
2022-10-02T18:59:18.675Z,16.48
2022-10-02T19:02:20.356Z,10.85
2022-10-02T19:05:13.296Z,13.45
2022-10-02T19:07:46.760Z,26.33
2022-10-02T19:10:32.197Z,22.70
2022-10-02T19:13:17.945Z,19.52
2022-10-02T19:15:47.342Z,39.77
2022-10-02T19:18:21.650Z,26.08
2022-10-02T19:21:09.591Z,19.50
2022-10-02T19:23:51.226Z,17.40
2022-10-02T19:26:52.212Z,22.00
2022-10-02T19:29:37.512Z,29.50
2022-10-02T19:32:16.153Z,29.73
2022-10-02T19:34:43.659Z,29.35
2022-10-02T19:37:17.306Z,18.85
2022-10-02T19:39:56.283Z,16.33
2022-10-02T19:42:32.465Z,33.78
2022-10-02T19:45:03.387Z,32.17
2022-10-02T19:47:38.894Z,20.75
2022-10-02T19:50:08.465Z,24.95
2022-10-02T19:53:13.661Z,21.52
2022-10-02T19:55:42.379Z,28.17
2022-10-02T19:58:17.284Z,18.77
2022-10-02T20:00:44.459Z,31.02
2022-10-02T20:03:21.455Z,36.50
2022-10-02T20:05:55.777Z,26.67
2022-10-02T20:08:30.877Z,25.05
2022-10-02T20:11:32.909Z,36.08
2022-10-02T20:14:10.941Z,23.05
2022-10-02T20:16:57.396Z,19.98
2022-10-02T20:19:27.442Z,18.33
2022-10-02T20:21:57.199Z,25.90
2022-10-02T20:24:24.242Z,27.00
2022-10-02T20:26:56.106Z,27.35
2022-10-02T20:29:29.831Z,40.70
2022-10-02T20:32:07.840Z,23.35
2022-10-02T20:34:50.326Z,24.67
2022-10-02T20:37:22.609Z,25.13
2022-10-02T20:40:00.060Z,15.80
2022-10-02T20:42:50.495Z,25.38
2022-10-02T20:45:18.203Z,16.50
2022-10-02T20:48:11.432Z,26.65
2022-10-02T20:51:07.178Z,22.13
2022-10-02T20:53:50.220Z,15.25
2022-10-02T20:56:45.376Z,28.45
2022-10-02T20:59:48.232Z,18.10
2022-10-02T21:02:43.425Z,14.43
2022-10-02T21:05:35.879Z,67.00
2022-10-02T21:08:27.865Z,59.38
2022-10-02T21:11:06.889Z,39.67
2022-10-02T21:13:49.970Z,32.25
2022-10-02T21:16:39.068Z,23.88
2022-10-02T21:19:44.444Z,26.63
2022-10-02T21:22:45.150Z,18.17
2022-10-02T21:25:50.138Z,26.92
2022-10-02T21:28:55.544Z,13.48
2022-10-02T21:32:10.326Z,28.48
2022-10-02T21:34:58.061Z,16.65
2022-10-02T21:38:00.144Z,18.27
2022-10-02T21:41:14.573Z,16.90
2022-10-02T21:44:16.478Z,27.15
2022-10-02T21:47:11.482Z,10.82
2022-10-02T21:50:00.230Z,17.67
2022-10-02T21:53:01.830Z,16.60
2022-10-02T21:55:35.033Z,21.52
2022-10-02T21:58:34.912Z,20.13
2022-10-02T22:02:04.288Z,24.65
2022-10-02T22:04:55.188Z,24.27
2022-10-02T22:07:45.928Z,25.08
2022-10-02T22:10:19.847Z,14.88
2022-10-02T22:13:26.454Z,26.73
2022-10-02T22:15:54.522Z,16.45
2022-10-02T22:18:40.270Z,22.27
2022-10-02T22:21:30.373Z,18.50
2022-10-02T22:24:06.509Z,20.05
2022-10-02T22:27:11.444Z,14.05
2022-10-02T22:29:46.502Z,25.23
2022-10-02T22:33:03.129Z,19.58
2022-10-02T22:36:03.854Z,21.58
2022-10-02T22:38:51.746Z,19.85
2022-10-02T22:41:26.614Z,15.82
2022-10-02T22:44:18.742Z,16.23
2022-10-02T22:46:53.708Z,21.52
2022-10-02T22:49:36.108Z,27.05
2022-10-02T22:52:18.031Z,15.73
2022-10-02T22:55:03.484Z,21.80
2022-10-02T22:57:41.886Z,19.10
2022-10-02T23:00:32.892Z,44.45
2022-10-02T23:03:19.494Z,19.50
2022-10-02T23:06:03.457Z,27.00
2022-10-02T23:09:06.210Z,21.35
2022-10-02T23:11:50.434Z,19.92
2022-10-02T23:14:25.948Z,18.95
2022-10-02T23:17:11.911Z,19.80
2022-10-02T23:20:12.065Z,14.90
2022-10-02T23:23:01.486Z,32.40
2022-10-02T23:25:45.236Z,27.00
2022-10-02T23:28:26.435Z,18.45
2022-10-02T23:31:30.269Z,13.38
2022-10-02T23:34:17.449Z,28.80
2022-10-02T23:36:56.058Z,31.65
2022-10-02T23:39:52.065Z,28.33
2022-10-02T23:42:26.619Z,25.67
2022-10-02T23:45:01.792Z,15.48
2022-10-02T23:47:49.392Z,28.70
2022-10-02T23:51:03.223Z,21.95
2022-10-02T23:53:52.533Z,21.15
2022-10-02T23:56:50.649Z,19.05
2022-10-02T23:59:32.864Z,17.63
